sensor_id;sensor_type;location;lat;lon;timestamp;pressure;altitude;pressure_sealevel;temperature;humidity
64632;BME280;58358;50.936;0.246;2022-11-15T00:02:05;100015.06;;;10.98;64.09
64632;BME280;58358;50.936;0.246;2022-11-15T00:04:29;100015.30;;;11.05;64.60
64632;BME280;58358;50.936;0.246;2022-11-15T00:06:55;100010.78;;;11.28;65.02
64632;BME280;58358;50.936;0.246;2022-11-15T00:09:21;100007.28;;;10.98;64.06
64632;BME280;58358;50.936;0.246;2022-11-15T00:11:48;100007.09;;;10.81;65.99
64632;BME280;58358;50.936;0.246;2022-11-15T00:14:12;100003.09;;;10.61;66.75
64632;BME280;58358;50.936;0.246;2022-11-15T00:16:40;99997.83;;;9.83;68.57
64632;BME280;58358;50.936;0.246;2022-11-15T00:19:06;99996.17;;;10.14;68.33
64632;BME280;58358;50.936;0.246;2022-11-15T00:21:30;99991.68;;;9.93;68.71
64632;BME280;58358;50.936;0.246;2022-11-15T00:23:56;99987.11;;;9.74;69.07
64632;BME280;58358;50.936;0.246;2022-11-15T00:26:21;99982.75;;;9.36;68.86
64632;BME280;58358;50.936;0.246;2022-11-15T00:28:47;99975.80;;;9.49;70.29
64632;BME280;58358;50.936;0.246;2022-11-15T00:31:14;99971.03;;;8.65;71.88
64632;BME280;58358;50.936;0.246;2022-11-15T00:33:39;99969.42;;;8.85;71.35
64632;BME280;58358;50.936;0.246;2022-11-15T00:36:07;99964.47;;;10.08;68.49
64632;BME280;58358;50.936;0.246;2022-11-15T00:38:31;99959.61;;;9.31;69.02
64632;BME280;58358;50.936;0.246;2022-11-15T00:40:56;99951.73;;;9.27;70.14
64632;BME280;58358;50.936;0.246;2022-11-15T00:43:22;99944.41;;;9.24;69.09
64632;BME280;58358;50.936;0.246;2022-11-15T00:45:48;99942.42;;;9.90;68.21
64632;BME280;58358;50.936;0.246;2022-11-15T00:48:13;99938.84;;;9.84;68.23
64632;BME280;58358;50.936;0.246;2022-11-15T00:50:39;99933.25;;;9.77;68.90
64632;BME280;58358;50.936;0.246;2022-11-15T00:53:06;99930.27;;;9.79;68.50
64632;BME280;58358;50.936;0.246;2022-11-15T00:55:31;99926.38;;;9.36;69.26
64632;BME280;58358;50.936;0.246;2022-11-15T00:57:56;99922.41;;;8.53;71.80
64632;BME280;58358;50.936;0.246;2022-11-15T01:00:22;99916.58;;;8.39;71.30
64632;BME280;58358;50.936;0.246;2022-11-15T01:02:48;99913.86;;;9.29;70.14
64632;BME280;58358;50.936;0.246;2022-11-15T01:05:14;99910.00;;;8.43;72.04
64632;BME280;58358;50.936;0.246;2022-11-15T01:07:40;99909.33;;;8.56;71.70
64632;BME280;58358;50.936;0.246;2022-11-15T01:10:06;99905.67;;;8.44;72.48
64632;BME280;58358;50.936;0.246;2022-11-15T01:12:32;99900.69;;;7.85;74.91
64632;BME280;58358;50.936;0.246;2022-11-15T01:14:57;99898.52;;;7.81;74.27
64632;BME280;58358;50.936;0.246;2022-11-15T01:17:22;99889.92;;;8.40;73.14
64632;BME280;58358;50.936;0.246;2022-11-15T01:19:48;99882.32;;;9.30;70.22
64632;BME280;58358;50.936;0.246;2022-11-15T01:22:13;99880.05;;;9.01;70.98
64632;BME280;58358;50.936;0.246;2022-11-15T01:24:39;99876.67;;;8.68;71.64
64632;BME280;58358;50.936;0.246;2022-11-15T01:27:05;99873.43;;;8.69;71.21
64632;BME280;58358;50.936;0.246;2022-11-15T01:29:31;99877.19;;;9.43;70.53
64632;BME280;58358;50.936;0.246;2022-11-15T01:31:57;99870.18;;;8.60;71.07
64632;BME280;58358;50.936;0.246;2022-11-15T01:34:24;99869.79;;;9.58;70.53
64632;BME280;58358;50.936;0.246;2022-11-15T01:36:48;99863.01;;;9.76;70.51
64632;BME280;58358;50.936;0.246;2022-11-15T01:39:14;99854.95;;;10.02;69.84
64632;BME280;58358;50.936;0.246;2022-11-15T01:41:40;99844.74;;;10.08;69.13
64632;BME280;58358;50.936;0.246;2022-11-15T01:46:35;99836.39;;;10.21;69.41
64632;BME280;58358;50.936;0.246;2022-11-15T01:49:00;99834.51;;;9.98;69.55
64632;BME280;58358;50.936;0.246;2022-11-15T01:51:27;99824.55;;;9.79;70.96
64632;BME280;58358;50.936;0.246;2022-11-15T01:53:52;99818.80;;;10.36;69.93
64632;BME280;58358;50.936;0.246;2022-11-15T01:56:19;99813.51;;;10.79;69.10
64632;BME280;58358;50.936;0.246;2022-11-15T01:58:41;99811.55;;;10.94;67.41
64632;BME280;58358;50.936;0.246;2022-11-15T02:01:06;99803.75;;;11.49;66.50
64632;BME280;58358;50.936;0.246;2022-11-15T02:03:37;99805.29;;;11.33;66.63
64632;BME280;58358;50.936;0.246;2022-11-15T02:05:58;99805.72;;;11.57;66.01
64632;BME280;58358;50.936;0.246;2022-11-15T02:08:24;99806.43;;;9.91;70.68
64632;BME280;58358;50.936;0.246;2022-11-15T02:10:49;99801.28;;;10.87;68.58
64632;BME280;58358;50.936;0.246;2022-11-15T02:13:15;99795.31;;;10.43;69.16
64632;BME280;58358;50.936;0.246;2022-11-15T02:15:44;99793.25;;;10.61;69.43
64632;BME280;58358;50.936;0.246;2022-11-15T02:18:14;99792.63;;;9.80;71.19
64632;BME280;58358;50.936;0.246;2022-11-15T02:20:42;99780.03;;;10.50;71.08
64632;BME280;58358;50.936;0.246;2022-11-15T02:25:34;99767.59;;;10.22;72.55
64632;BME280;58358;50.936;0.246;2022-11-15T02:30:21;99764.11;;;10.05;74.27
64632;BME280;58358;50.936;0.246;2022-11-15T02:32:45;99752.56;;;10.06;73.49
64632;BME280;58358;50.936;0.246;2022-11-15T02:35:14;99753.78;;;9.67;75.27
64632;BME280;58358;50.936;0.246;2022-11-15T02:37:39;99744.84;;;10.05;74.57
64632;BME280;58358;50.936;0.246;2022-11-15T02:40:05;99741.71;;;10.39;73.82
64632;BME280;58358;50.936;0.246;2022-11-15T02:42:26;99728.69;;;9.94;74.73
64632;BME280;58358;50.936;0.246;2022-11-15T02:44:49;99728.38;;;9.71;76.43
64632;BME280;58358;50.936;0.246;2022-11-15T02:47:17;99721.92;;;9.69;76.54
64632;BME280;58358;50.936;0.246;2022-11-15T02:49:43;99715.23;;;10.20;75.19
64632;BME280;58358;50.936;0.246;2022-11-15T02:52:07;99710.28;;;9.89;75.87
64632;BME280;58358;50.936;0.246;2022-11-15T02:54:35;99711.26;;;9.12;78.26
64632;BME280;58358;50.936;0.246;2022-11-15T02:57:04;99711.17;;;9.58;77.71
64632;BME280;58358;50.936;0.246;2022-11-15T03:02:03;99707.65;;;9.62;78.22
64632;BME280;58358;50.936;0.246;2022-11-15T03:04:23;99703.11;;;8.93;80.04
64632;BME280;58358;50.936;0.246;2022-11-15T03:06:46;99698.65;;;9.36;79.42
64632;BME280;58358;50.936;0.246;2022-11-15T03:09:13;99699.90;;;10.14;76.45
64632;BME280;58358;50.936;0.246;2022-11-15T03:11:37;99699.12;;;8.65;80.92
64632;BME280;58358;50.936;0.246;2022-11-15T03:14:00;99695.29;;;9.71;78.63
64632;BME280;58358;50.936;0.246;2022-11-15T03:16:27;99686.47;;;8.75;80.26
64632;BME280;58358;50.936;0.246;2022-11-15T03:18:55;99679.56;;;9.03;80.92
64632;BME280;58358;50.936;0.246;2022-11-15T03:21:18;99677.37;;;9.45;80.38
64632;BME280;58358;50.936;0.246;2022-11-15T03:23:41;99671.23;;;9.08;81.75
64632;BME280;58358;50.936;0.246;2022-11-15T03:26:08;99672.90;;;9.37;82.10
64632;BME280;58358;50.936;0.246;2022-11-15T03:28:35;99664.90;;;9.41;80.97
64632;BME280;58358;50.936;0.246;2022-11-15T03:30:59;99669.02;;;8.92;83.17
64632;BME280;58358;50.936;0.246;2022-11-15T03:33:24;99669.17;;;9.01;82.41
64632;BME280;58358;50.936;0.246;2022-11-15T03:35:50;99660.90;;;9.18;82.40
64632;BME280;58358;50.936;0.246;2022-11-15T03:38:19;99662.65;;;9.58;81.96
64632;BME280;58358;50.936;0.246;2022-11-15T03:40:41;99662.03;;;9.58;81.81
64632;BME280;58358;50.936;0.246;2022-11-15T03:43:13;99655.64;;;9.69;81.13
64632;BME280;58358;50.936;0.246;2022-11-15T03:45:39;99656.36;;;9.40;80.79
64632;BME280;58358;50.936;0.246;2022-11-15T03:48:00;99660.91;;;9.15;82.31
64632;BME280;58358;50.936;0.246;2022-11-15T03:50:24;99657.90;;;9.77;80.25
64632;BME280;58358;50.936;0.246;2022-11-15T03:52:49;99648.61;;;9.47;79.90
64632;BME280;58358;50.936;0.246;2022-11-15T03:55:18;99653.37;;;9.61;79.63
64632;BME280;58358;50.936;0.246;2022-11-15T03:57:42;99646.48;;;9.33;79.13
64632;BME280;58358;50.936;0.246;2022-11-15T04:00:07;99649.70;;;8.79;81.56
64632;BME280;58358;50.936;0.246;2022-11-15T04:02:34;99642.24;;;8.70;82.55
64632;BME280;58358;50.936;0.246;2022-11-15T04:04:57;99634.94;;;9.80;80.39
64632;BME280;58358;50.936;0.246;2022-11-15T04:07:23;99629.45;;;9.75;80.04
64632;BME280;58358;50.936;0.246;2022-11-15T04:09:48;99623.25;;;8.69;81.68
64632;BME280;58358;50.936;0.246;2022-11-15T04:12:14;99611.26;;;9.66;79.78
64632;BME280;58358;50.936;0.246;2022-11-15T04:14:40;99615.26;;;8.93;81.52
64632;BME280;58358;50.936;0.246;2022-11-15T04:17:04;99603.90;;;9.54;80.09
64632;BME280;58358;50.936;0.246;2022-11-15T04:19:30;99599.27;;;9.13;80.03
64632;BME280;58358;50.936;0.246;2022-11-15T04:21:56;99589.42;;;9.09;80.26
64632;BME280;58358;50.936;0.246;2022-11-15T04:24:23;99583.81;;;8.83;79.40
64632;BME280;58358;50.936;0.246;2022-11-15T04:26:47;99582.30;;;9.29;79.08
64632;BME280;58358;50.936;0.246;2022-11-15T04:29:13;99583.20;;;9.28;80.27
64632;BME280;58358;50.936;0.246;2022-11-15T04:31:39;99582.43;;;9.04;79.75
64632;BME280;58358;50.936;0.246;2022-11-15T04:34:04;99572.00;;;9.09;80.13
64632;BME280;58358;50.936;0.246;2022-11-15T04:36:30;99570.07;;;8.96;79.60
64632;BME280;58358;50.936;0.246;2022-11-15T04:38:56;99575.02;;;9.33;79.18
64632;BME280;58358;50.936;0.246;2022-11-15T04:41:22;99576.17;;;9.47;77.61
64632;BME280;58358;50.936;0.246;2022-11-15T04:43:47;99573.92;;;9.85;78.59
64632;BME280;58358;50.936;0.246;2022-11-15T04:46:13;99568.38;;;9.25;79.05
64632;BME280;58358;50.936;0.246;2022-11-15T04:48:39;99565.52;;;8.86;80.59
64632;BME280;58358;50.936;0.246;2022-11-15T04:51:04;99561.15;;;9.87;77.98
64632;BME280;58358;50.936;0.246;2022-11-15T04:53:30;99559.78;;;9.09;79.41
64632;BME280;58358;50.936;0.246;2022-11-15T04:55:56;99551.12;;;9.21;79.39
64632;BME280;58358;50.936;0.246;2022-11-15T04:58:22;99550.10;;;8.76;82.23
64632;BME280;58358;50.936;0.246;2022-11-15T05:00:47;99543.44;;;9.40;80.78
64632;BME280;58358;50.936;0.246;2022-11-15T05:03:13;99540.75;;;9.32;79.77
64632;BME280;58358;50.936;0.246;2022-11-15T05:05:40;99534.64;;;8.75;82.37
64632;BME280;58358;50.936;0.246;2022-11-15T05:08:04;99538.92;;;8.90;82.21
64632;BME280;58358;50.936;0.246;2022-11-15T05:10:29;99533.87;;;9.13;81.27
64632;BME280;58358;50.936;0.246;2022-11-15T05:12:54;99528.58;;;9.42;79.50
64632;BME280;58358;50.936;0.246;2022-11-15T05:15:20;99523.18;;;9.66;78.03
64632;BME280;58358;50.936;0.246;2022-11-15T05:17:46;99523.27;;;9.59;79.17
64632;BME280;58358;50.936;0.246;2022-11-15T05:20:11;99517.05;;;9.22;81.67
64632;BME280;58358;50.936;0.246;2022-11-15T05:22:38;99507.77;;;9.51;79.89
64632;BME280;58358;50.936;0.246;2022-11-15T05:25:03;99498.01;;;9.13;80.93
64632;BME280;58358;50.936;0.246;2022-11-15T05:27:29;99487.47;;;9.08;81.42
64632;BME280;58358;50.936;0.246;2022-11-15T05:29:54;99486.92;;;9.07;82.72
64632;BME280;58358;50.936;0.246;2022-11-15T05:32:20;99487.32;;;8.43;84.78
64632;BME280;58358;50.936;0.246;2022-11-15T05:34:46;99491.30;;;8.22;85.09
64632;BME280;58358;50.936;0.246;2022-11-15T05:37:13;99479.94;;;8.97;82.31
64632;BME280;58358;50.936;0.246;2022-11-15T05:39:37;99472.63;;;8.56;83.91
64632;BME280;58358;50.936;0.246;2022-11-15T05:42:07;99465.43;;;8.74;83.86
64632;BME280;58358;50.936;0.246;2022-11-15T05:44:28;99470.60;;;8.41;83.59
64632;BME280;58358;50.936;0.246;2022-11-15T05:46:55;99468.15;;;9.15;82.19
64632;BME280;58358;50.936;0.246;2022-11-15T05:49:23;99463.02;;;8.41;81.55
64632;BME280;58358;50.936;0.246;2022-11-15T05:51:47;99467.77;;;9.15;81.44
64632;BME280;58358;50.936;0.246;2022-11-15T05:54:11;99472.10;;;9.27;81.75
64632;BME280;58358;50.936;0.246;2022-11-15T05:56:37;99470.67;;;9.08;80.07
64632;BME280;58358;50.936;0.246;2022-11-15T05:59:03;99470.68;;;8.99;80.99
64632;BME280;58358;50.936;0.246;2022-11-15T06:01:28;99469.67;;;9.64;78.01
64632;BME280;58358;50.936;0.246;2022-11-15T06:03:54;99469.81;;;9.12;78.91
64632;BME280;58358;50.936;0.246;2022-11-15T06:06:20;99465.35;;;9.37;78.55
64632;BME280;58358;50.936;0.246;2022-11-15T06:08:45;99463.86;;;9.51;78.06
64632;BME280;58358;50.936;0.246;2022-11-15T06:11:11;99461.93;;;8.72;81.22
64632;BME280;58358;50.936;0.246;2022-11-15T06:13:38;99459.51;;;9.01;81.14
64632;BME280;58358;50.936;0.246;2022-11-15T06:16:03;99458.58;;;9.76;79.06
64632;BME280;58358;50.936;0.246;2022-11-15T06:18:31;99448.05;;;8.65;80.89
64632;BME280;58358;50.936;0.246;2022-11-15T06:20:54;99442.08;;;9.55;79.34
64632;BME280;58358;50.936;0.246;2022-11-15T06:23:20;99446.85;;;9.02;80.81
64632;BME280;58358;50.936;0.246;2022-11-15T06:25:45;99435.32;;;8.82;80.93
64632;BME280;58358;50.936;0.246;2022-11-15T06:28:11;99439.51;;;8.93;82.46
64632;BME280;58358;50.936;0.246;2022-11-15T06:30:37;99429.34;;;8.79;82.74
64632;BME280;58358;50.936;0.246;2022-11-15T06:33:05;99427.73;;;9.20;81.10
64632;BME280;58358;50.936;0.246;2022-11-15T06:35:28;99423.20;;;9.00;81.64
64632;BME280;58358;50.936;0.246;2022-11-15T06:37:54;99418.07;;;8.39;83.90
64632;BME280;58358;50.936;0.246;2022-11-15T06:40:20;99409.91;;;8.60;82.64
64632;BME280;58358;50.936;0.246;2022-11-15T06:42:46;99405.45;;;8.80;83.64
64632;BME280;58358;50.936;0.246;2022-11-15T06:45:12;99401.02;;;9.39;81.58
64632;BME280;58358;50.936;0.246;2022-11-15T06:47:44;99391.15;;;9.55;79.87
64632;BME280;58358;50.936;0.246;2022-11-15T06:50:02;99390.26;;;9.14;81.16
64632;BME280;58358;50.936;0.246;2022-11-15T06:52:30;99383.54;;;8.53;83.68
64632;BME280;58358;50.936;0.246;2022-11-15T06:54:54;99378.77;;;8.58;83.65
64632;BME280;58358;50.936;0.246;2022-11-15T06:57:20;99377.82;;;9.07;83.50
64632;BME280;58358;50.936;0.246;2022-11-15T06:59:45;99369.74;;;9.62;81.04
64632;BME280;58358;50.936;0.246;2022-11-15T07:02:12;99372.97;;;9.11;82.32
64632;BME280;58358;50.936;0.246;2022-11-15T07:04:38;99374.44;;;8.69;83.81
64632;BME280;58358;50.936;0.246;2022-11-15T07:07:02;99379.35;;;8.69;84.72
64632;BME280;58358;50.936;0.246;2022-11-15T07:09:28;99377.44;;;8.55;85.22
64632;BME280;58358;50.936;0.246;2022-11-15T07:11:54;99368.02;;;8.81;83.92
64632;BME280;58358;50.936;0.246;2022-11-15T07:14:20;99368.18;;;8.43;87.06
64632;BME280;58358;50.936;0.246;2022-11-15T07:16:46;99362.11;;;8.76;86.52
64632;BME280;58358;50.936;0.246;2022-11-15T07:19:10;99357.59;;;8.17;88.14
64632;BME280;58358;50.936;0.246;2022-11-15T07:21:36;99354.52;;;8.99;85.54
64632;BME280;58358;50.936;0.246;2022-11-15T07:24:02;99351.35;;;9.24;85.00
64632;BME280;58358;50.936;0.246;2022-11-15T07:26:27;99344.58;;;9.04;84.83
64632;BME280;58358;50.936;0.246;2022-11-15T07:28:53;99346.10;;;8.38;87.35
64632;BME280;58358;50.936;0.246;2022-11-15T07:31:19;99342.21;;;8.37;87.96
64632;BME280;58358;50.936;0.246;2022-11-15T07:33:45;99345.32;;;8.90;86.36
64632;BME280;58358;50.936;0.246;2022-11-15T07:36:10;99352.06;;;8.71;87.25
64632;BME280;58358;50.936;0.246;2022-11-15T07:38:36;99346.86;;;8.76;88.79
64632;BME280;58358;50.936;0.246;2022-11-15T07:41:03;99343.20;;;8.22;90.77
64632;BME280;58358;50.936;0.246;2022-11-15T07:43:28;99337.15;;;7.69;93.23
64632;BME280;58358;50.936;0.246;2022-11-15T07:45:53;99336.42;;;8.44;92.04
64632;BME280;58358;50.936;0.246;2022-11-15T07:48:19;99331.99;;;8.90;89.47
64632;BME280;58358;50.936;0.246;2022-11-15T07:50:45;99329.61;;;7.82;93.55
64632;BME280;58358;50.936;0.246;2022-11-15T07:53:10;99326.45;;;8.22;93.73
64632;BME280;58358;50.936;0.246;2022-11-15T07:55:36;99323.98;;;7.80;95.79
64632;BME280;58358;50.936;0.246;2022-11-15T07:58:02;99318.56;;;8.43;94.14
64632;BME280;58358;50.936;0.246;2022-11-15T08:00:27;99315.99;;;8.27;94.09
64632;BME280;58358;50.936;0.246;2022-11-15T08:03:02;99312.37;;;8.07;95.38
64632;BME280;58358;50.936;0.246;2022-11-15T08:05:19;99310.29;;;8.67;93.41
64632;BME280;58358;50.936;0.246;2022-11-15T08:07:44;99306.45;;;8.56;94.13
64632;BME280;58358;50.936;0.246;2022-11-15T08:10:10;99304.95;;;8.05;95.52
64632;BME280;58358;50.936;0.246;2022-11-15T08:12:35;99297.85;;;7.99;97.47
64632;BME280;58358;50.936;0.246;2022-11-15T08:15:01;99296.20;;;7.28;98.42
64632;BME280;58358;50.936;0.246;2022-11-15T08:17:27;99292.10;;;7.15;99.78
64632;BME280;58358;50.936;0.246;2022-11-15T08:19:52;99293.71;;;7.76;100.00
64632;BME280;58358;50.936;0.246;2022-11-15T08:22:19;99296.34;;;8.03;99.86
64632;BME280;58358;50.936;0.246;2022-11-15T08:24:44;99294.53;;;7.97;99.70
64632;BME280;58358;50.936;0.246;2022-11-15T08:27:10;99292.06;;;8.04;98.71
64632;BME280;58358;50.936;0.246;2022-11-15T08:29:35;99289.10;;;8.16;98.60
64632;BME280;58358;50.936;0.246;2022-11-15T08:32:01;99292.57;;;8.00;99.34
64632;BME280;58358;50.936;0.246;2022-11-15T08:34:26;99287.96;;;7.85;100.00
64632;BME280;58358;50.936;0.246;2022-11-15T08:36:52;99284.22;;;8.23;99.99
64632;BME280;58358;50.936;0.246;2022-11-15T08:39:17;99284.13;;;8.52;99.36
64632;BME280;58358;50.936;0.246;2022-11-15T08:41:43;99279.48;;;8.25;98.87
64632;BME280;58358;50.936;0.246;2022-11-15T08:44:09;99277.52;;;8.07;99.98
64632;BME280;58358;50.936;0.246;2022-11-15T08:46:34;99269.83;;;7.94;100.00
64632;BME280;58358;50.936;0.246;2022-11-15T08:49:00;99269.08;;;8.07;100.00
64632;BME280;58358;50.936;0.246;2022-11-15T08:51:26;99259.67;;;7.80;100.00
64632;BME280;58358;50.936;0.246;2022-11-15T08:53:51;99260.29;;;7.81;100.00
64632;BME280;58358;50.936;0.246;2022-11-15T08:56:16;99246.60;;;8.09;100.00
64632;BME280;58358;50.936;0.246;2022-11-15T08:58:42;99248.99;;;7.94;100.00
64632;BME280;58358;50.936;0.246;2022-11-15T09:01:14;99249.61;;;8.36;100.00
64632;BME280;58358;50.936;0.246;2022-11-15T09:03:33;99240.05;;;7.62;100.00
64632;BME280;58358;50.936;0.246;2022-11-15T09:06:00;99235.35;;;7.72;100.00
64632;BME280;58358;50.936;0.246;2022-11-15T09:08:24;99234.15;;;7.55;100.00
64632;BME280;58358;50.936;0.246;2022-11-15T09:10:50;99236.06;;;8.26;100.00
64632;BME280;58358;50.936;0.246;2022-11-15T09:13:16;99227.93;;;8.06;100.00
64632;BME280;58358;50.936;0.246;2022-11-15T09:15:41;99225.60;;;8.21;100.00
64632;BME280;58358;50.936;0.246;2022-11-15T09:18:07;99214.16;;;7.90;100.00
64632;BME280;58358;50.936;0.246;2022-11-15T09:20:33;99215.32;;;8.27;100.00
64632;BME280;58358;50.936;0.246;2022-11-15T09:23:00;99205.94;;;7.87;100.00
64632;BME280;58358;50.936;0.246;2022-11-15T09:25:24;99196.94;;;7.71;100.00
64632;BME280;58358;50.936;0.246;2022-11-15T09:27:49;99199.02;;;7.60;100.00
64632;BME280;58358;50.936;0.246;2022-11-15T09:30:15;99201.51;;;7.55;100.00
64632;BME280;58358;50.936;0.246;2022-11-15T09:32:40;99203.92;;;8.47;100.00
64632;BME280;58358;50.936;0.246;2022-11-15T09:35:07;99206.36;;;8.34;100.00
64632;BME280;58358;50.936;0.246;2022-11-15T09:37:32;99197.48;;;7.75;100.00
64632;BME280;58358;50.936;0.246;2022-11-15T09:39:57;99196.36;;;7.93;100.00
64632;BME280;58358;50.936;0.246;2022-11-15T09:45:02;99199.68;;;8.23;100.00
64632;BME280;58358;50.936;0.246;2022-11-15T09:49:39;99191.19;;;8.16;100.00
64632;BME280;58358;50.936;0.246;2022-11-15T09:52:07;99179.16;;;8.74;99.39
64632;BME280;58358;50.936;0.246;2022-11-15T09:54:32;99175.38;;;8.01;100.00
64632;BME280;58358;50.936;0.246;2022-11-15T09:57:02;99172.82;;;8.25;100.00
64632;BME280;58358;50.936;0.246;2022-11-15T10:01:52;99170.50;;;8.49;100.00
64632;BME280;58358;50.936;0.246;2022-11-15T10:04:13;99166.24;;;8.51;100.00
64632;BME280;58358;50.936;0.246;2022-11-15T10:06:42;99168.52;;;8.01;100.00
64632;BME280;58358;50.936;0.246;2022-11-15T10:09:12;99164.42;;;8.51;100.00
64632;BME280;58358;50.936;0.246;2022-11-15T10:11:32;99150.16;;;8.12;100.00
64632;BME280;58358;50.936;0.246;2022-11-15T10:13:59;99154.34;;;8.04;100.00
64632;BME280;58358;50.936;0.246;2022-11-15T10:16:38;99145.31;;;8.02;100.00
64632;BME280;58358;50.936;0.246;2022-11-15T10:18:54;99137.32;;;8.54;100.00
64632;BME280;58358;50.936;0.246;2022-11-15T10:21:17;99138.88;;;8.54;99.86
64632;BME280;58358;50.936;0.246;2022-11-15T10:23:38;99132.41;;;8.80;98.16
64632;BME280;58358;50.936;0.246;2022-11-15T10:26:10;99123.73;;;8.82;98.01
64632;BME280;58358;50.936;0.246;2022-11-15T10:28:30;99121.76;;;8.53;99.91
64632;BME280;58358;50.936;0.246;2022-11-15T10:30:57;99123.85;;;8.84;98.48
64632;BME280;58358;50.936;0.246;2022-11-15T10:33:29;99115.54;;;8.08;100.00
64632;BME280;58358;50.936;0.246;2022-11-15T10:35:46;99124.41;;;8.16;100.00
64632;BME280;58358;50.936;0.246;2022-11-15T10:38:12;99114.27;;;9.07;99.63
64632;BME280;58358;50.936;0.246;2022-11-15T10:40:40;99108.41;;;8.40;99.81
64632;BME280;58358;50.936;0.246;2022-11-15T10:43:12;99113.63;;;8.00;100.00
64632;BME280;58358;50.936;0.246;2022-11-15T10:45:31;99098.15;;;7.74;100.00
64632;BME280;58358;50.936;0.246;2022-11-15T10:50:27;99089.41;;;7.86;100.00
64632;BME280;58358;50.936;0.246;2022-11-15T10:52:46;99075.47;;;8.61;100.00
64632;BME280;58358;50.936;0.246;2022-11-15T10:55:24;99068.86;;;7.92;100.00
64632;BME280;58358;50.936;0.246;2022-11-15T10:57:38;99069.19;;;8.48;100.00
64632;BME280;58358;50.936;0.246;2022-11-15T11:00:12;99062.21;;;8.57;100.00
64632;BME280;58358;50.936;0.246;2022-11-15T11:02:33;99052.00;;;8.23;100.00
64632;BME280;58358;50.936;0.246;2022-11-15T11:04:54;99050.34;;;8.78;100.00
64632;BME280;58358;50.936;0.246;2022-11-15T11:07:22;99040.38;;;8.54;100.00
64632;BME280;58358;50.936;0.246;2022-11-15T11:12:12;99032.09;;;8.92;100.00
64632;BME280;58358;50.936;0.246;2022-11-15T11:14:38;99033.65;;;8.96;100.00
64632;BME280;58358;50.936;0.246;2022-11-15T11:17:05;99024.81;;;8.46;100.00
64632;BME280;58358;50.936;0.246;2022-11-15T11:22:01;99017.62;;;8.30;100.00
64632;BME280;58358;50.936;0.246;2022-11-15T11:24:25;99009.52;;;8.31;100.00
64632;BME280;58358;50.936;0.246;2022-11-15T11:26:50;99011.63;;;8.79;100.00
64632;BME280;58358;50.936;0.246;2022-11-15T11:29:23;99007.20;;;8.63;100.00
64632;BME280;58358;50.936;0.246;2022-11-15T11:31:42;98996.58;;;8.29;100.00
64632;BME280;58358;50.936;0.246;2022-11-15T11:34:12;98991.72;;;8.49;100.00
64632;BME280;58358;50.936;0.246;2022-11-15T11:36:35;98990.80;;;8.15;100.00
64632;BME280;58358;50.936;0.246;2022-11-15T11:39:02;98982.69;;;8.36;100.00
64632;BME280;58358;50.936;0.246;2022-11-15T11:43:51;98971.10;;;8.12;100.00
64632;BME280;58358;50.936;0.246;2022-11-15T11:46:26;98974.40;;;9.05;100.00
64632;BME280;58358;50.936;0.246;2022-11-15T11:48:41;98974.02;;;8.79;100.00
64632;BME280;58358;50.936;0.246;2022-11-15T11:51:08;98971.63;;;8.61;100.00
64632;BME280;58358;50.936;0.246;2022-11-15T11:53:32;98972.04;;;8.23;100.00
64632;BME280;58358;50.936;0.246;2022-11-15T11:55:55;98959.06;;;8.15;100.00
64632;BME280;58358;50.936;0.246;2022-11-15T11:58:33;98956.45;;;9.27;100.00
64632;BME280;58358;50.936;0.246;2022-11-15T12:00:49;98954.00;;;9.46;98.37
64632;BME280;58358;50.936;0.246;2022-11-15T12:03:14;98947.89;;;8.95;100.00
64632;BME280;58358;50.936;0.246;2022-11-15T12:05:41;98952.08;;;8.86;100.00
64632;BME280;58358;50.936;0.246;2022-11-15T12:08:14;98942.49;;;8.97;100.00
64632;BME280;58358;50.936;0.246;2022-11-15T12:10:30;98936.70;;;8.48;100.00
64632;BME280;58358;50.936;0.246;2022-11-15T12:12:56;98931.91;;;9.23;100.00
64632;BME280;58358;50.936;0.246;2022-11-15T12:15:23;98943.01;;;8.68;100.00
64632;BME280;58358;50.936;0.246;2022-11-15T12:17:44;98925.52;;;9.01;100.00
64632;BME280;58358;50.936;0.246;2022-11-15T12:20:15;98926.75;;;8.84;100.00
64632;BME280;58358;50.936;0.246;2022-11-15T12:22:41;98920.09;;;8.72;100.00
64632;BME280;58358;50.936;0.246;2022-11-15T12:25:03;98923.03;;;9.12;100.00
64632;BME280;58358;50.936;0.246;2022-11-15T12:27:31;98916.02;;;8.35;100.00
64632;BME280;58358;50.936;0.246;2022-11-15T12:29:56;98908.07;;;9.05;100.00
64632;BME280;58358;50.936;0.246;2022-11-15T12:32:26;98914.42;;;9.27;100.00
64632;BME280;58358;50.936;0.246;2022-11-15T12:34:44;98903.25;;;8.60;100.00
64632;BME280;58358;50.936;0.246;2022-11-15T12:47:03;98892.28;;;8.78;100.00
64632;BME280;58358;50.936;0.246;2022-11-15T12:56:32;98871.13;;;9.29;100.00
64632;BME280;58358;50.936;0.246;2022-11-15T12:58:59;98862.00;;;9.68;99.90
64632;BME280;58358;50.936;0.246;2022-11-15T13:08:43;98856.64;;;9.04;100.00
64632;BME280;58358;50.936;0.246;2022-11-15T13:13:43;98858.57;;;9.69;100.00
64632;BME280;58358;50.936;0.246;2022-11-15T13:15:59;98855.99;;;9.75;100.00
64632;BME280;58358;50.936;0.246;2022-11-15T13:18:32;98860.37;;;9.40;100.00
64632;BME280;58358;50.936;0.246;2022-11-15T13:20:48;98863.95;;;9.94;100.00
64632;BME280;58358;50.936;0.246;2022-11-15T13:23:15;98857.76;;;9.78;100.00
64632;BME280;58358;50.936;0.246;2022-11-15T13:25:55;98870.58;;;9.55;100.00
64632;BME280;58358;50.936;0.246;2022-11-15T13:28:11;98865.58;;;9.72;100.00
64632;BME280;58358;50.936;0.246;2022-11-15T13:30:32;98859.68;;;9.71;100.00
64632;BME280;58358;50.936;0.246;2022-11-15T13:33:00;98865.38;;;9.89;100.00
64632;BME280;58358;50.936;0.246;2022-11-15T13:35:24;98859.45;;;9.17;100.00
64632;BME280;58358;50.936;0.246;2022-11-15T13:37:48;98858.45;;;8.55;100.00
64632;BME280;58358;50.936;0.246;2022-11-15T13:40:25;98854.73;;;10.16;99.41
64632;BME280;58358;50.936;0.246;2022-11-15T13:42:38;98854.25;;;10.43;99.79
64632;BME280;58358;50.936;0.246;2022-11-15T13:47:30;98843.22;;;11.14;96.82
64632;BME280;58358;50.936;0.246;2022-11-15T13:49:57;98849.48;;;11.04;97.18
64632;BME280;58358;50.936;0.246;2022-11-15T13:52:21;98847.28;;;11.61;92.84
64632;BME280;58358;50.936;0.246;2022-11-15T13:54:50;98843.38;;;11.17;96.26